sensor_id;sensor_type;location;lat;lon;timestamp;P1;durP1;ratioP1;P2;durP2;ratioP2
33553;SDS011;19885;42.208;24.952;2023-04-06T00:01:26;7.57;;;5.27;;
33553;SDS011;19885;42.208;24.952;2023-04-06T00:03:51;7.07;;;5.20;;
33553;SDS011;19885;42.208;24.952;2023-04-06T00:06:17;8.17;;;5.67;;
33553;SDS011;19885;42.208;24.952;2023-04-06T00:08:42;7.07;;;5.17;;
33553;SDS011;19885;42.208;24.952;2023-04-06T00:11:08;6.20;;;5.20;;
33553;SDS011;19885;42.208;24.952;2023-04-06T00:13:34;7.83;;;5.47;;
33553;SDS011;19885;42.208;24.952;2023-04-06T00:15:59;9.87;;;6.07;;
33553;SDS011;19885;42.208;24.952;2023-04-06T00:18:25;7.33;;;5.53;;
33553;SDS011;19885;42.208;24.952;2023-04-06T00:20:51;8.20;;;5.40;;
33553;SDS011;19885;42.208;24.952;2023-04-06T00:23:17;8.80;;;5.57;;
33553;SDS011;19885;42.208;24.952;2023-04-06T00:25:42;6.50;;;5.10;;
33553;SDS011;19885;42.208;24.952;2023-04-06T00:28:08;6.73;;;5.20;;
33553;SDS011;19885;42.208;24.952;2023-04-06T00:30:33;6.77;;;5.37;;
33553;SDS011;19885;42.208;24.952;2023-04-06T00:32:59;11.13;;;5.73;;
33553;SDS011;19885;42.208;24.952;2023-04-06T00:35:25;9.13;;;5.57;;
33553;SDS011;19885;42.208;24.952;2023-04-06T00:37:51;7.90;;;5.47;;
33553;SDS011;19885;42.208;24.952;2023-04-06T00:40:17;8.83;;;7.23;;
33553;SDS011;19885;42.208;24.952;2023-04-06T00:42:42;7.57;;;5.40;;
33553;SDS011;19885;42.208;24.952;2023-04-06T00:45:08;5.50;;;4.70;;
33553;SDS011;19885;42.208;24.952;2023-04-06T00:47:35;9.70;;;6.03;;
33553;SDS011;19885;42.208;24.952;2023-04-06T00:50:01;8.70;;;5.83;;
33553;SDS011;19885;42.208;24.952;2023-04-06T00:52:27;6.17;;;4.93;;
33553;SDS011;19885;42.208;24.952;2023-04-06T00:54:52;7.77;;;5.40;;
33553;SDS011;19885;42.208;24.952;2023-04-06T00:57:18;7.03;;;5.10;;
33553;SDS011;19885;42.208;24.952;2023-04-06T00:59:44;5.57;;;4.33;;
33553;SDS011;19885;42.208;24.952;2023-04-06T01:02:10;8.27;;;5.47;;
33553;SDS011;19885;42.208;24.952;2023-04-06T01:04:36;8.60;;;5.60;;
33553;SDS011;19885;42.208;24.952;2023-04-06T01:07:01;7.00;;;4.80;;
33553;SDS011;19885;42.208;24.952;2023-04-06T01:09:27;8.37;;;5.70;;
33553;SDS011;19885;42.208;24.952;2023-04-06T01:11:54;10.40;;;5.90;;
33553;SDS011;19885;42.208;24.952;2023-04-06T01:14:21;7.37;;;5.53;;
33553;SDS011;19885;42.208;24.952;2023-04-06T01:16:46;8.67;;;5.97;;
33553;SDS011;19885;42.208;24.952;2023-04-06T01:19:12;7.33;;;5.47;;
33553;SDS011;19885;42.208;24.952;2023-04-06T01:21:38;8.27;;;5.77;;
33553;SDS011;19885;42.208;24.952;2023-04-06T01:24:05;8.00;;;6.10;;
33553;SDS011;19885;42.208;24.952;2023-04-06T01:26:31;6.77;;;5.37;;
33553;SDS011;19885;42.208;24.952;2023-04-06T01:28:58;11.15;;;6.20;;
33553;SDS011;19885;42.208;24.952;2023-04-06T01:31:23;7.30;;;5.30;;
33553;SDS011;19885;42.208;24.952;2023-04-06T01:33:50;6.27;;;5.10;;
33553;SDS011;19885;42.208;24.952;2023-04-06T01:36:16;6.03;;;5.20;;
33553;SDS011;19885;42.208;24.952;2023-04-06T01:38:42;7.90;;;5.03;;
33553;SDS011;19885;42.208;24.952;2023-04-06T01:41:07;6.70;;;5.37;;
33553;SDS011;19885;42.208;24.952;2023-04-06T01:43:33;6.80;;;4.83;;
33553;SDS011;19885;42.208;24.952;2023-04-06T01:45:59;9.07;;;5.20;;
33553;SDS011;19885;42.208;24.952;2023-04-06T01:48:25;8.20;;;5.07;;
33553;SDS011;19885;42.208;24.952;2023-04-06T01:50:51;9.90;;;5.03;;
33553;SDS011;19885;42.208;24.952;2023-04-06T01:53:17;7.47;;;5.93;;
33553;SDS011;19885;42.208;24.952;2023-04-06T01:55:43;8.90;;;5.73;;
33553;SDS011;19885;42.208;24.952;2023-04-06T01:58:08;6.43;;;5.40;;
33553;SDS011;19885;42.208;24.952;2023-04-06T02:00:34;7.63;;;6.30;;
33553;SDS011;19885;42.208;24.952;2023-04-06T02:03:00;8.73;;;5.90;;
33553;SDS011;19885;42.208;24.952;2023-04-06T02:05:25;7.77;;;5.30;;
33553;SDS011;19885;42.208;24.952;2023-04-06T02:07:51;7.17;;;5.83;;
33553;SDS011;19885;42.208;24.952;2023-04-06T02:10:17;7.93;;;5.47;;
33553;SDS011;19885;42.208;24.952;2023-04-06T02:12:43;7.63;;;6.23;;
33553;SDS011;19885;42.208;24.952;2023-04-06T02:15:08;9.87;;;6.50;;
33553;SDS011;19885;42.208;24.952;2023-04-06T02:17:34;8.57;;;6.37;;
33553;SDS011;19885;42.208;24.952;2023-04-06T02:20:00;8.73;;;6.43;;
33553;SDS011;19885;42.208;24.952;2023-04-06T02:22:25;12.23;;;6.37;;
33553;SDS011;19885;42.208;24.952;2023-04-06T02:24:51;9.53;;;7.07;;
33553;SDS011;19885;42.208;24.952;2023-04-06T02:27:16;8.10;;;6.10;;
33553;SDS011;19885;42.208;24.952;2023-04-06T02:29:42;8.97;;;5.30;;
33553;SDS011;19885;42.208;24.952;2023-04-06T02:32:07;10.13;;;6.83;;
33553;SDS011;19885;42.208;24.952;2023-04-06T02:34:33;8.57;;;6.47;;
33553;SDS011;19885;42.208;24.952;2023-04-06T02:36:58;8.37;;;6.07;;
33553;SDS011;19885;42.208;24.952;2023-04-06T02:39:24;9.53;;;6.60;;
33553;SDS011;19885;42.208;24.952;2023-04-06T02:41:49;8.83;;;6.27;;
33553;SDS011;19885;42.208;24.952;2023-04-06T02:44:15;9.23;;;6.40;;
33553;SDS011;19885;42.208;24.952;2023-04-06T02:46:40;7.13;;;5.83;;
33553;SDS011;19885;42.208;24.952;2023-04-06T02:49:06;11.53;;;6.10;;
33553;SDS011;19885;42.208;24.952;2023-04-06T02:51:32;10.43;;;5.97;;
33553;SDS011;19885;42.208;24.952;2023-04-06T02:53:58;8.83;;;5.83;;
33553;SDS011;19885;42.208;24.952;2023-04-06T02:56:24;8.47;;;6.50;;
33553;SDS011;19885;42.208;24.952;2023-04-06T02:58:49;10.00;;;7.37;;
33553;SDS011;19885;42.208;24.952;2023-04-06T03:01:15;7.07;;;6.17;;
33553;SDS011;19885;42.208;24.952;2023-04-06T03:03:41;12.93;;;6.50;;
33553;SDS011;19885;42.208;24.952;2023-04-06T03:06:06;11.73;;;7.20;;
33553;SDS011;19885;42.208;24.952;2023-04-06T03:08:32;9.60;;;6.40;;
33553;SDS011;19885;42.208;24.952;2023-04-06T03:10:57;8.63;;;6.37;;
33553;SDS011;19885;42.208;24.952;2023-04-06T03:13:23;8.83;;;6.73;;
33553;SDS011;19885;42.208;24.952;2023-04-06T03:15:48;11.47;;;6.83;;
33553;SDS011;19885;42.208;24.952;2023-04-06T03:18:14;9.10;;;6.23;;
33553;SDS011;19885;42.208;24.952;2023-04-06T03:20:40;11.27;;;7.43;;
33553;SDS011;19885;42.208;24.952;2023-04-06T03:23:05;12.00;;;7.23;;
33553;SDS011;19885;42.208;24.952;2023-04-06T03:25:31;11.90;;;6.60;;
33553;SDS011;19885;42.208;24.952;2023-04-06T03:27:56;13.23;;;7.47;;
33553;SDS011;19885;42.208;24.952;2023-04-06T03:30:22;8.17;;;6.47;;
33553;SDS011;19885;42.208;24.952;2023-04-06T03:32:47;11.13;;;7.50;;
33553;SDS011;19885;42.208;24.952;2023-04-06T03:35:13;10.13;;;7.03;;
33553;SDS011;19885;42.208;24.952;2023-04-06T03:37:38;12.33;;;8.63;;
33553;SDS011;19885;42.208;24.952;2023-04-06T03:40:04;11.13;;;6.87;;
33553;SDS011;19885;42.208;24.952;2023-04-06T03:42:30;12.97;;;8.83;;
33553;SDS011;19885;42.208;24.952;2023-04-06T03:44:57;11.83;;;7.90;;
33553;SDS011;19885;42.208;24.952;2023-04-06T03:47:23;9.50;;;7.40;;
33553;SDS011;19885;42.208;24.952;2023-04-06T03:49:50;14.50;;;7.67;;
33553;SDS011;19885;42.208;24.952;2023-04-06T03:52:15;8.93;;;6.87;;
33553;SDS011;19885;42.208;24.952;2023-04-06T03:54:41;11.27;;;7.00;;
33553;SDS011;19885;42.208;24.952;2023-04-06T03:57:06;10.97;;;8.10;;
33553;SDS011;19885;42.208;24.952;2023-04-06T03:59:32;12.10;;;7.97;;
33553;SDS011;19885;42.208;24.952;2023-04-06T04:01:57;12.90;;;7.57;;
33553;SDS011;19885;42.208;24.952;2023-04-06T04:04:23;13.53;;;7.70;;
33553;SDS011;19885;42.208;24.952;2023-04-06T04:06:48;10.63;;;8.17;;
33553;SDS011;19885;42.208;24.952;2023-04-06T04:09:14;10.20;;;7.73;;
33553;SDS011;19885;42.208;24.952;2023-04-06T04:11:39;12.53;;;8.40;;
33553;SDS011;19885;42.208;24.952;2023-04-06T04:14:05;11.53;;;7.67;;
33553;SDS011;19885;42.208;24.952;2023-04-06T04:16:30;9.50;;;7.13;;
33553;SDS011;19885;42.208;24.952;2023-04-06T04:18:56;11.03;;;7.07;;
33553;SDS011;19885;42.208;24.952;2023-04-06T04:21:23;11.10;;;8.17;;
33553;SDS011;19885;42.208;24.952;2023-04-06T04:23:48;11.70;;;7.63;;
33553;SDS011;19885;42.208;24.952;2023-04-06T04:26:14;12.13;;;7.83;;
33553;SDS011;19885;42.208;24.952;2023-04-06T04:28:40;11.53;;;7.33;;
33553;SDS011;19885;42.208;24.952;2023-04-06T04:31:05;12.10;;;7.47;;
33553;SDS011;19885;42.208;24.952;2023-04-06T04:33:31;12.80;;;8.20;;
33553;SDS011;19885;42.208;24.952;2023-04-06T04:35:56;14.40;;;8.37;;
33553;SDS011;19885;42.208;24.952;2023-04-06T04:38:22;13.03;;;8.03;;
33553;SDS011;19885;42.208;24.952;2023-04-06T04:40:47;12.57;;;8.43;;
33553;SDS011;19885;42.208;24.952;2023-04-06T04:43:13;9.40;;;6.90;;
33553;SDS011;19885;42.208;24.952;2023-04-06T04:45:38;11.83;;;8.10;;
33553;SDS011;19885;42.208;24.952;2023-04-06T04:48:04;15.23;;;8.47;;
33553;SDS011;19885;42.208;24.952;2023-04-06T04:50:30;11.50;;;7.57;;
33553;SDS011;19885;42.208;24.952;2023-04-06T04:52:56;12.83;;;7.83;;
33553;SDS011;19885;42.208;24.952;2023-04-06T04:55:22;11.57;;;7.80;;
33553;SDS011;19885;42.208;24.952;2023-04-06T04:57:47;14.03;;;8.13;;
33553;SDS011;19885;42.208;24.952;2023-04-06T05:00:13;12.37;;;8.47;;
33553;SDS011;19885;42.208;24.952;2023-04-06T05:02:39;11.70;;;7.53;;
33553;SDS011;19885;42.208;24.952;2023-04-06T05:05:04;9.33;;;6.67;;
33553;SDS011;19885;42.208;24.952;2023-04-06T05:07:30;12.93;;;7.77;;
33553;SDS011;19885;42.208;24.952;2023-04-06T05:09:56;9.50;;;6.97;;
33553;SDS011;19885;42.208;24.952;2023-04-06T05:12:21;11.57;;;7.97;;
33553;SDS011;19885;42.208;24.952;2023-04-06T05:14:47;9.77;;;6.97;;
33553;SDS011;19885;42.208;24.952;2023-04-06T05:17:13;10.50;;;7.30;;
33553;SDS011;19885;42.208;24.952;2023-04-06T05:19:38;11.53;;;7.30;;
33553;SDS011;19885;42.208;24.952;2023-04-06T05:22:07;11.90;;;5.90;;
33553;SDS011;19885;42.208;24.952;2023-04-06T05:24:33;10.60;;;7.23;;
33553;SDS011;19885;42.208;24.952;2023-04-06T05:27:00;9.53;;;6.23;;
33553;SDS011;19885;42.208;24.952;2023-04-06T05:29:26;14.67;;;6.97;;
33553;SDS011;19885;42.208;24.952;2023-04-06T05:31:51;9.20;;;6.50;;
33553;SDS011;19885;42.208;24.952;2023-04-06T05:34:17;8.63;;;7.37;;
33553;SDS011;19885;42.208;24.952;2023-04-06T05:36:43;9.50;;;6.37;;
33553;SDS011;19885;42.208;24.952;2023-04-06T05:39:10;9.73;;;6.33;;
33553;SDS011;19885;42.208;24.952;2023-04-06T05:41:37;10.10;;;6.27;;
33553;SDS011;19885;42.208;24.952;2023-04-06T05:44:02;11.97;;;6.57;;
33553;SDS011;19885;42.208;24.952;2023-04-06T05:46:28;10.40;;;6.93;;
33553;SDS011;19885;42.208;24.952;2023-04-06T05:48:54;10.10;;;7.17;;
33553;SDS011;19885;42.208;24.952;2023-04-06T05:51:21;11.73;;;6.67;;
33553;SDS011;19885;42.208;24.952;2023-04-06T05:53:47;9.33;;;6.20;;
33553;SDS011;19885;42.208;24.952;2023-04-06T05:56:12;11.33;;;7.43;;
33553;SDS011;19885;42.208;24.952;2023-04-06T05:58:38;10.63;;;7.17;;
33553;SDS011;19885;42.208;24.952;2023-04-06T06:01:04;10.00;;;6.83;;
33553;SDS011;19885;42.208;24.952;2023-04-06T06:03:30;10.37;;;6.43;;
33553;SDS011;19885;42.208;24.952;2023-04-06T06:06:02;9.67;;;6.40;;
33553;SDS011;19885;42.208;24.952;2023-04-06T06:08:29;9.50;;;7.23;;
33553;SDS011;19885;42.208;24.952;2023-04-06T06:10:55;11.30;;;5.77;;
33553;SDS011;19885;42.208;24.952;2023-04-06T06:13:22;10.47;;;7.17;;
33553;SDS011;19885;42.208;24.952;2023-04-06T06:15:50;8.17;;;6.17;;
33553;SDS011;19885;42.208;24.952;2023-04-06T06:18:16;8.43;;;6.23;;
33553;SDS011;19885;42.208;24.952;2023-04-06T06:20:41;8.27;;;5.83;;
33553;SDS011;19885;42.208;24.952;2023-04-06T06:23:07;8.50;;;6.03;;
33553;SDS011;19885;42.208;24.952;2023-04-06T06:25:33;9.63;;;6.07;;
33553;SDS011;19885;42.208;24.952;2023-04-06T06:27:58;10.30;;;5.87;;
33553;SDS011;19885;42.208;24.952;2023-04-06T06:30:24;15.20;;;6.57;;
33553;SDS011;19885;42.208;24.952;2023-04-06T06:32:51;7.60;;;5.23;;
33553;SDS011;19885;42.208;24.952;2023-04-06T06:35:16;8.67;;;6.07;;
33553;SDS011;19885;42.208;24.952;2023-04-06T06:37:42;7.77;;;6.27;;
33553;SDS011;19885;42.208;24.952;2023-04-06T06:40:09;8.67;;;5.90;;
33553;SDS011;19885;42.208;24.952;2023-04-06T06:42:35;8.23;;;5.90;;
33553;SDS011;19885;42.208;24.952;2023-04-06T06:45:01;10.47;;;7.07;;
33553;SDS011;19885;42.208;24.952;2023-04-06T06:47:27;7.93;;;5.37;;
33553;SDS011;19885;42.208;24.952;2023-04-06T06:49:52;8.87;;;5.17;;
33553;SDS011;19885;42.208;24.952;2023-04-06T06:52:18;8.73;;;5.87;;
33553;SDS011;19885;42.208;24.952;2023-04-06T06:54:45;10.73;;;5.47;;
33553;SDS011;19885;42.208;24.952;2023-04-06T06:57:10;12.00;;;6.10;;
33553;SDS011;19885;42.208;24.952;2023-04-06T06:59:36;10.87;;;5.17;;
33553;SDS011;19885;42.208;24.952;2023-04-06T07:02:01;10.70;;;6.23;;
33553;SDS011;19885;42.208;24.952;2023-04-06T07:04:27;9.50;;;5.97;;
33553;SDS011;19885;42.208;24.952;2023-04-06T07:06:52;6.97;;;4.57;;
33553;SDS011;19885;42.208;24.952;2023-04-06T07:09:18;10.67;;;6.00;;
33553;SDS011;19885;42.208;24.952;2023-04-06T07:11:44;5.80;;;4.90;;
33553;SDS011;19885;42.208;24.952;2023-04-06T07:14:09;7.63;;;5.33;;
33553;SDS011;19885;42.208;24.952;2023-04-06T07:16:36;6.03;;;5.43;;
33553;SDS011;19885;42.208;24.952;2023-04-06T07:19:02;8.47;;;5.77;;
33553;SDS011;19885;42.208;24.952;2023-04-06T07:21:28;9.97;;;6.37;;
33553;SDS011;19885;42.208;24.952;2023-04-06T07:23:53;9.40;;;6.33;;
33553;SDS011;19885;42.208;24.952;2023-04-06T07:26:19;6.27;;;4.77;;
33553;SDS011;19885;42.208;24.952;2023-04-06T07:28:45;6.83;;;5.83;;
33553;SDS011;19885;42.208;24.952;2023-04-06T07:31:10;8.83;;;6.10;;
33553;SDS011;19885;42.208;24.952;2023-04-06T07:33:36;7.17;;;5.87;;
33553;SDS011;19885;42.208;24.952;2023-04-06T07:36:01;6.00;;;4.87;;
33553;SDS011;19885;42.208;24.952;2023-04-06T07:38:27;6.70;;;4.87;;
33553;SDS011;19885;42.208;24.952;2023-04-06T07:40:53;6.83;;;5.23;;
33553;SDS011;19885;42.208;24.952;2023-04-06T07:43:19;7.97;;;4.70;;
33553;SDS011;19885;42.208;24.952;2023-04-06T07:45:45;6.70;;;5.17;;
33553;SDS011;19885;42.208;24.952;2023-04-06T07:48:10;8.93;;;6.10;;
33553;SDS011;19885;42.208;24.952;2023-04-06T07:50:36;6.90;;;5.20;;
33553;SDS011;19885;42.208;24.952;2023-04-06T07:53:02;8.43;;;5.53;;
33553;SDS011;19885;42.208;24.952;2023-04-06T07:55:27;7.30;;;5.40;;
33553;SDS011;19885;42.208;24.952;2023-04-06T07:57:53;8.70;;;4.77;;
33553;SDS011;19885;42.208;24.952;2023-04-06T08:00:19;11.77;;;5.77;;
33553;SDS011;19885;42.208;24.952;2023-04-06T08:02:45;6.20;;;5.20;;
33553;SDS011;19885;42.208;24.952;2023-04-06T08:05:10;6.77;;;5.43;;
33553;SDS011;19885;42.208;24.952;2023-04-06T08:07:36;7.03;;;5.50;;
33553;SDS011;19885;42.208;24.952;2023-04-06T08:10:02;6.17;;;5.10;;
33553;SDS011;19885;42.208;24.952;2023-04-06T08:12:28;6.30;;;5.03;;
33553;SDS011;19885;42.208;24.952;2023-04-06T08:14:53;7.23;;;4.97;;
33553;SDS011;19885;42.208;24.952;2023-04-06T08:17:19;7.60;;;4.77;;
33553;SDS011;19885;42.208;24.952;2023-04-06T08:19:45;4.60;;;4.03;;
33553;SDS011;19885;42.208;24.952;2023-04-06T08:22:11;7.10;;;4.93;;
33553;SDS011;19885;42.208;24.952;2023-04-06T08:24:37;5.57;;;4.47;;
33553;SDS011;19885;42.208;24.952;2023-04-06T08:27:02;5.07;;;3.97;;
33553;SDS011;19885;42.208;24.952;2023-04-06T08:29:28;6.93;;;5.27;;
33553;SDS011;19885;42.208;24.952;2023-04-06T08:31:54;8.60;;;4.87;;
33553;SDS011;19885;42.208;24.952;2023-04-06T08:34:20;7.53;;;5.60;;
33553;SDS011;19885;42.208;24.952;2023-04-06T08:36:46;6.23;;;4.77;;
33553;SDS011;19885;42.208;24.952;2023-04-06T08:39:12;5.07;;;4.57;;
33553;SDS011;19885;42.208;24.952;2023-04-06T08:41:38;7.50;;;5.77;;
33553;SDS011;19885;42.208;24.952;2023-04-06T08:44:06;8.27;;;5.83;;
33553;SDS011;19885;42.208;24.952;2023-04-06T08:46:31;6.07;;;4.33;;
33553;SDS011;19885;42.208;24.952;2023-04-06T08:48:58;8.03;;;5.23;;
33553;SDS011;19885;42.208;24.952;2023-04-06T08:51:25;5.67;;;3.87;;
33553;SDS011;19885;42.208;24.952;2023-04-06T08:53:52;4.63;;;3.90;;
33553;SDS011;19885;42.208;24.952;2023-04-06T08:56:24;4.50;;;3.67;;
33553;SDS011;19885;42.208;24.952;2023-04-06T08:58:51;4.87;;;3.53;;
33553;SDS011;19885;42.208;24.952;2023-04-06T09:01:20;5.13;;;3.83;;
33553;SDS011;19885;42.208;24.952;2023-04-06T09:03:48;6.80;;;4.73;;
33553;SDS011;19885;42.208;24.952;2023-04-06T09:06:15;4.90;;;3.70;;
33553;SDS011;19885;42.208;24.952;2023-04-06T09:08:42;6.07;;;4.00;;
33553;SDS011;19885;42.208;24.952;2023-04-06T09:11:08;5.10;;;4.10;;
33553;SDS011;19885;42.208;24.952;2023-04-06T09:16:16;8.27;;;5.93;;
33553;SDS011;19885;42.208;24.952;2023-04-06T09:18:42;6.03;;;4.40;;
33553;SDS011;19885;42.208;24.952;2023-04-06T09:21:08;7.27;;;4.57;;
33553;SDS011;19885;42.208;24.952;2023-04-06T09:23:35;4.70;;;4.00;;
33553;SDS011;19885;42.208;24.952;2023-04-06T09:26:07;4.33;;;3.67;;
33553;SDS011;19885;42.208;24.952;2023-04-06T09:28:48;9.50;;;4.67;;
33553;SDS011;19885;42.208;24.952;2023-04-06T09:31:25;4.00;;;3.53;;
33553;SDS011;19885;42.208;24.952;2023-04-06T09:33:55;4.30;;;3.80;;
33553;SDS011;19885;42.208;24.952;2023-04-06T09:36:32;5.57;;;4.03;;
33553;SDS011;19885;42.208;24.952;2023-04-06T09:39:00;4.60;;;3.77;;
33553;SDS011;19885;42.208;24.952;2023-04-06T09:41:32;4.80;;;3.57;;
33553;SDS011;19885;42.208;24.952;2023-04-06T09:44:02;4.10;;;3.70;;
33553;SDS011;19885;42.208;24.952;2023-04-06T09:46:33;5.60;;;4.13;;
33553;SDS011;19885;42.208;24.952;2023-04-06T09:49:00;7.30;;;4.30;;
33553;SDS011;19885;42.208;24.952;2023-04-06T09:51:34;6.60;;;4.20;;
33553;SDS011;19885;42.208;24.952;2023-04-06T09:54:02;6.00;;;3.77;;
33553;SDS011;19885;42.208;24.952;2023-04-06T09:59:36;4.97;;;3.53;;
33553;SDS011;19885;42.208;24.952;2023-04-06T10:02:03;6.07;;;4.40;;
33553;SDS011;19885;42.208;24.952;2023-04-06T10:04:46;6.00;;;4.47;;
33553;SDS011;19885;42.208;24.952;2023-04-06T10:07:18;7.03;;;4.30;;
33553;SDS011;19885;42.208;24.952;2023-04-06T10:09:45;5.27;;;3.93;;
33553;SDS011;19885;42.208;24.952;2023-04-06T10:12:11;7.07;;;4.50;;
33553;SDS011;19885;42.208;24.952;2023-04-06T10:14:38;9.33;;;5.30;;
33553;SDS011;19885;42.208;24.952;2023-04-06T10:17:06;6.20;;;4.73;;
33553;SDS011;19885;42.208;24.952;2023-04-06T10:19:34;7.33;;;5.10;;
33553;SDS011;19885;42.208;24.952;2023-04-06T10:22:03;5.77;;;4.77;;
33553;SDS011;19885;42.208;24.952;2023-04-06T10:24:31;5.90;;;4.07;;
33553;SDS011;19885;42.208;24.952;2023-04-06T10:27:00;10.50;;;4.60;;
33553;SDS011;19885;42.208;24.952;2023-04-06T10:29:27;5.30;;;4.13;;
33553;SDS011;19885;42.208;24.952;2023-04-06T10:31:53;7.43;;;4.17;;
33553;SDS011;19885;42.208;24.952;2023-04-06T10:34:20;19.03;;;5.17;;
33553;SDS011;19885;42.208;24.952;2023-04-06T10:36:46;5.60;;;4.07;;
33553;SDS011;19885;42.208;24.952;2023-04-06T10:39:11;4.60;;;4.17;;
33553;SDS011;19885;42.208;24.952;2023-04-06T10:41:41;3.67;;;3.23;;
33553;SDS011;19885;42.208;24.952;2023-04-06T10:44:08;4.23;;;3.73;;
33553;SDS011;19885;42.208;24.952;2023-04-06T10:46:52;4.37;;;3.87;;
33553;SDS011;19885;42.208;24.952;2023-04-06T10:49:21;4.80;;;3.90;;
33553;SDS011;19885;42.208;24.952;2023-04-06T10:51:50;3.50;;;3.17;;
33553;SDS011;19885;42.208;24.952;2023-04-06T10:54:20;4.80;;;3.20;;
33553;SDS011;19885;42.208;24.952;2023-04-06T10:56:47;4.07;;;3.43;;
33553;SDS011;19885;42.208;24.952;2023-04-06T10:59:13;3.43;;;2.50;;
33553;SDS011;19885;42.208;24.952;2023-04-06T11:01:44;4.57;;;2.70;;
33553;SDS011;19885;42.208;24.952;2023-04-06T11:04:10;4.43;;;3.57;;
33553;SDS011;19885;42.208;24.952;2023-04-06T11:06:40;3.93;;;3.20;;
33553;SDS011;19885;42.208;24.952;2023-04-06T11:09:05;6.83;;;2.53;;
33553;SDS011;19885;42.208;24.952;2023-04-06T11:11:31;2.60;;;2.40;;
33553;SDS011;19885;42.208;24.952;2023-04-06T11:13:58;4.17;;;2.50;;
33553;SDS011;19885;42.208;24.952;2023-04-06T11:16:25;7.97;;;2.87;;
33553;SDS011;19885;42.208;24.952;2023-04-06T11:18:57;2.67;;;2.40;;
33553;SDS011;19885;42.208;24.952;2023-04-06T11:24:17;2.97;;;2.60;;
33553;SDS011;19885;42.208;24.952;2023-04-06T11:26:45;2.53;;;2.20;;
33553;SDS011;19885;42.208;24.952;2023-04-06T11:29:14;2.77;;;2.57;;
33553;SDS011;19885;42.208;24.952;2023-04-06T11:31:45;3.10;;;2.13;;
33553;SDS011;19885;42.208;24.952;2023-04-06T11:34:13;2.87;;;2.20;;
33553;SDS011;19885;42.208;24.952;2023-04-06T11:36:43;3.23;;;2.57;;
33553;SDS011;19885;42.208;24.952;2023-04-06T11:39:10;2.73;;;2.47;;
33553;SDS011;19885;42.208;24.952;2023-04-06T11:41:40;7.40;;;3.10;;
33553;SDS011;19885;42.208;24.952;2023-04-06T11:44:06;4.00;;;2.67;;
33553;SDS011;19885;42.208;24.952;2023-04-06T11:46:32;4.60;;;3.10;;
33553;SDS011;19885;42.208;24.952;2023-04-06T11:48:58;2.30;;;2.10;;
33553;SDS011;19885;42.208;24.952;2023-04-06T11:51:25;2.30;;;2.07;;
33553;SDS011;19885;42.208;24.952;2023-04-06T11:53:54;3.00;;;2.27;;
33553;SDS011;19885;42.208;24.952;2023-04-06T11:56:39;2.43;;;2.23;;
33553;SDS011;19885;42.208;24.952;2023-04-06T11:59:04;5.50;;;2.50;;
33553;SDS011;19885;42.208;24.952;2023-04-06T12:01:30;2.67;;;1.83;;
33553;SDS011;19885;42.208;24.952;2023-04-06T12:03:56;3.47;;;2.53;;
33553;SDS011;19885;42.208;24.952;2023-04-06T12:06:22;3.63;;;2.20;;
33553;SDS011;19885;42.208;24.952;2023-04-06T12:08:48;4.77;;;2.37;;
33553;SDS011;19885;42.208;24.952;2023-04-06T12:11:13;3.80;;;2.40;;
33553;SDS011;19885;42.208;24.952;2023-04-06T12:13:39;3.33;;;2.33;;
33553;SDS011;19885;42.208;24.952;2023-04-06T12:16:05;3.77;;;2.27;;
33553;SDS011;19885;42.208;24.952;2023-04-06T12:18:30;4.00;;;1.87;;
33553;SDS011;19885;42.208;24.952;2023-04-06T12:20:56;2.50;;;2.07;;
33553;SDS011;19885;42.208;24.952;2023-04-06T12:23:21;3.33;;;2.50;;
33553;SDS011;19885;42.208;24.952;2023-04-06T12:25:47;3.30;;;2.43;;
33553;SDS011;19885;42.208;24.952;2023-04-06T12:28:12;2.60;;;2.17;;
33553;SDS011;19885;42.208;24.952;2023-04-06T12:30:38;2.80;;;2.47;;
33553;SDS011;19885;42.208;24.952;2023-04-06T12:33:06;2.90;;;2.53;;
33553;SDS011;19885;42.208;24.952;2023-04-06T12:35:34;2.27;;;1.93;;
33553;SDS011;19885;42.208;24.952;2023-04-06T12:38:01;2.50;;;1.83;;
33553;SDS011;19885;42.208;24.952;2023-04-06T12:40:27;2.03;;;1.83;;
33553;SDS011;19885;42.208;24.952;2023-04-06T16:51:39;6.47;;;4.73;;
33553;SDS011;19885;42.208;24.952;2023-04-06T16:54:05;6.67;;;4.77;;
33553;SDS011;19885;42.208;24.952;2023-04-06T16:56:30;6.13;;;4.60;;
33553;SDS011;19885;42.208;24.952;2023-04-06T16:58:56;6.43;;;4.47;;
33553;SDS011;19885;42.208;24.952;2023-04-06T17:01:22;5.40;;;4.70;;
33553;SDS011;19885;42.208;24.952;2023-04-06T17:03:50;4.63;;;3.87;;
33553;SDS011;19885;42.208;24.952;2023-04-06T17:06:16;7.10;;;4.00;;
33553;SDS011;19885;42.208;24.952;2023-04-06T17:08:42;7.30;;;4.53;;
33553;SDS011;19885;42.208;24.952;2023-04-06T17:11:08;5.10;;;4.60;;
33553;SDS011;19885;42.208;24.952;2023-04-06T17:13:34;7.17;;;4.97;;
33553;SDS011;19885;42.208;24.952;2023-04-06T17:16:00;8.73;;;4.27;;
33553;SDS011;19885;42.208;24.952;2023-04-06T17:18:26;6.67;;;4.40;;
33553;SDS011;19885;42.208;24.952;2023-04-06T17:20:54;7.53;;;5.03;;
33553;SDS011;19885;42.208;24.952;2023-04-06T17:23:20;5.63;;;4.40;;
33553;SDS011;19885;42.208;24.952;2023-04-06T17:25:48;8.10;;;4.60;;
33553;SDS011;19885;42.208;24.952;2023-04-06T17:28:14;7.57;;;4.83;;
33553;SDS011;19885;42.208;24.952;2023-04-06T17:30:40;9.90;;;5.30;;
33553;SDS011;19885;42.208;24.952;2023-04-06T17:33:06;5.77;;;4.83;;
33553;SDS011;19885;42.208;24.952;2023-04-06T17:35:32;7.87;;;5.57;;
33553;SDS011;19885;42.208;24.952;2023-04-06T17:37:58;5.93;;;4.83;;
33553;SDS011;19885;42.208;24.952;2023-04-06T17:40:25;10.57;;;5.43;;
33553;SDS011;19885;42.208;24.952;2023-04-06T17:42:51;8.67;;;5.20;;
33553;SDS011;19885;42.208;24.952;2023-04-06T17:45:17;6.10;;;4.50;;
33553;SDS011;19885;42.208;24.952;2023-04-06T17:47:43;6.07;;;5.40;;
33553;SDS011;19885;42.208;24.952;2023-04-06T17:50:09;5.83;;;4.97;;
33553;SDS011;19885;42.208;24.952;2023-04-06T17:52:34;8.57;;;5.37;;
33553;SDS011;19885;42.208;24.952;2023-04-06T17:55:01;6.80;;;4.83;;
33553;SDS011;19885;42.208;24.952;2023-04-06T17:57:27;6.87;;;4.90;;
33553;SDS011;19885;42.208;24.952;2023-04-06T17:59:53;7.27;;;5.10;;
33553;SDS011;19885;42.208;24.952;2023-04-06T18:02:19;10.40;;;5.30;;
33553;SDS011;19885;42.208;24.952;2023-04-06T18:04:46;9.73;;;5.53;;
33553;SDS011;19885;42.208;24.952;2023-04-06T18:07:16;10.93;;;5.37;;
33553;SDS011;19885;42.208;24.952;2023-04-06T18:09:42;7.90;;;5.23;;
33553;SDS011;19885;42.208;24.952;2023-04-06T18:12:08;9.70;;;5.97;;
33553;SDS011;19885;42.208;24.952;2023-04-06T18:14:38;8.93;;;6.23;;
33553;SDS011;19885;42.208;24.952;2023-04-06T18:17:04;8.73;;;6.03;;
33553;SDS011;19885;42.208;24.952;2023-04-06T18:19:34;8.73;;;6.10;;
33553;SDS011;19885;42.208;24.952;2023-04-06T18:22:00;8.10;;;5.70;;
33553;SDS011;19885;42.208;24.952;2023-04-06T18:24:26;12.07;;;5.83;;
33553;SDS011;19885;42.208;24.952;2023-04-06T18:26:53;10.17;;;6.33;;
33553;SDS011;19885;42.208;24.952;2023-04-06T18:29:22;8.10;;;5.23;;
33553;SDS011;19885;42.208;24.952;2023-04-06T18:31:48;12.53;;;5.47;;
33553;SDS011;19885;42.208;24.952;2023-04-06T18:34:16;8.43;;;6.23;;
33553;SDS011;19885;42.208;24.952;2023-04-06T18:36:43;8.03;;;5.47;;
33553;SDS011;19885;42.208;24.952;2023-04-06T18:39:11;8.77;;;5.33;;
33553;SDS011;19885;42.208;24.952;2023-04-06T18:41:38;10.60;;;6.80;;
33553;SDS011;19885;42.208;24.952;2023-04-06T18:44:06;8.13;;;5.60;;